Time;durP1;ratioP1;P1;durP2;ratioP2;P2;SDS_P1;SDS_P2;PMS_P1;PMS_P2;Temp;Humidity;BMP_temperature;BMP_pressure;BME280_temperature;BME280_humidity;BME280_pressure;Samples;Min_cycle;Max_cycle;Signal;HPM_P1;HPM_P2
2022/04/02 00:01:46;;;;;;;6.53;2.03;;;;;;;1.63;74.95;101489.47;5009163;28;20050;-63
2022/04/02 00:04:15;;;;;;;5.85;2.13;;;;;;;1.68;74.24;101489.41;5007986;28;20144;-58
2022/04/02 00:06:43;;;;;;;4.18;1.90;;;;;;;1.53;74.74;101487.94;5008459;28;20092;-59
2022/04/02 00:09:11;;;;;;;5.95;2.22;;;;;;;1.56;75.16;101489.63;5009093;28;20046;-63
2022/04/02 00:11:40;;;;;;;7.05;2.10;;;;;;;1.60;75.30;101489.53;5008843;28;20050;-63
2022/04/02 00:14:08;;;;;;;4.28;1.90;;;;;;;1.52;75.32;101486.22;5007968;28;20054;-58
2022/04/02 00:16:36;;;;;;;5.30;1.95;;;;;;;1.47;75.95;101493.22;5008923;28;20057;-62
2022/04/02 00:19:05;;;;;;;4.30;2.00;;;;;;;1.51;75.83;101487.09;5006095;28;20060;-63
2022/04/02 00:21:33;;;;;;;5.20;2.00;;;;;;;1.51;75.62;101487.97;5008053;28;20046;-64
2022/04/02 00:24:01;;;;;;;4.97;1.70;;;;;;;1.59;75.67;101498.19;5009221;28;20052;-63
2022/04/02 00:26:29;;;;;;;5.03;2.05;;;;;;;1.57;75.71;101494.78;5008775;28;20127;-58
2022/04/02 00:28:58;;;;;;;5.55;2.47;;;;;;;1.57;74.78;101487.00;5007107;28;20108;-58
2022/04/02 00:31:29;;;;;;;4.75;2.08;;;;;;;1.59;75.61;101493.00;5008514;28;20589;-63
2022/04/02 00:33:58;;;;;;;6.05;2.10;;;;;;;1.48;75.04;101495.78;5007107;28;20076;-63
2022/04/02 00:36:26;;;;;;;5.00;2.17;;;;;;;1.39;75.33;101497.69;5007568;28;20125;-63
2022/04/02 00:38:54;;;;;;;3.75;1.73;;;;;;;1.44;75.59;101493.28;5008597;28;20045;-63
2022/04/02 00:41:22;;;;;;;6.93;2.28;;;;;;;1.41;76.31;101491.59;5008633;28;20046;-63
2022/04/02 00:44:00;;;;;;;5.47;2.00;;;;;;;1.43;76.25;101486.38;5008682;28;20042;-63
2022/04/02 00:46:28;;;;;;;4.50;1.85;;;;;;;1.47;76.29;101490.63;5008722;28;20057;-63
2022/04/02 00:48:56;;;;;;;6.35;2.10;;;;;;;1.33;76.06;101491.72;5007236;28;20049;-63
2022/04/02 00:51:24;;;;;;;4.78;1.90;;;;;;;1.43;76.08;101495.03;5007433;28;20488;-59
2022/04/02 00:53:53;;;;;;;4.85;1.83;;;;;;;1.46;75.38;101491.50;5008809;28;20714;-59
2022/04/02 00:56:21;;;;;;;6.75;2.78;;;;;;;1.37;75.00;101492.53;5007706;28;20093;-63
2022/04/02 00:58:50;;;;;;;5.63;2.25;;;;;;;1.32;75.38;101504.69;5007921;28;20084;-63
2022/04/02 01:01:19;;;;;;;6.65;2.40;;;;;;;1.38;76.23;101501.16;5008317;28;20053;-63
2022/04/02 01:03:48;;;;;;;5.88;2.10;;;;;;;1.32;76.26;101504.69;5007392;28;20057;-58
2022/04/02 01:06:17;;;;;;;5.15;1.90;;;;;;;1.33;75.81;101507.25;5007758;28;20050;-58
2022/04/02 01:08:46;;;;;;;6.07;1.88;;;;;;;1.31;75.59;101502.97;5008676;28;20133;-63
2022/04/02 01:11:14;;;;;;;6.47;2.13;;;;;;;1.26;75.99;101503.06;5007949;28;20115;-63
2022/04/02 01:13:42;;;;;;;6.18;2.45;;;;;;;1.32;76.26;101504.69;5008679;28;20049;-63
2022/04/02 01:16:10;;;;;;;5.13;2.15;;;;;;;1.22;76.87;101513.50;5008170;28;20132;-59
2022/04/02 01:18:40;;;;;;;7.47;2.10;;;;;;;1.25;76.91;101516.88;5007597;28;20394;-63
2022/04/02 01:21:08;;;;;;;5.07;1.80;;;;;;;1.29;76.84;101515.13;5006064;28;20509;-63
2022/04/02 01:23:38;;;;;;;7.47;2.00;;;;;;;1.15;77.30;101505.81;5008431;28;20512;-58
2022/04/02 01:26:06;;;;;;;7.95;2.58;;;;;;;1.15;77.21;101512.75;5011074;28;20054;-58
2022/04/02 01:28:34;;;;;;;5.78;2.03;;;;;;;1.16;77.84;101517.06;5012244;28;20123;-58
2022/04/02 01:31:07;;;;;;;5.88;2.00;;;;;;;1.14;78.26;101522.22;5011684;28;20050;-58
2022/04/02 01:33:36;;;;;;;5.47;2.30;;;;;;;1.14;77.12;101514.47;5011097;28;20064;-59
2022/04/02 01:36:06;;;;;;;5.90;2.58;;;;;;;1.24;77.67;101520.38;5010725;28;20049;-59
2022/04/02 01:38:34;;;;;;;5.78;1.92;;;;;;;1.24;77.04;101522.97;5012026;28;20041;-63
2022/04/02 01:41:05;;;;;;;6.25;2.15;;;;;;;1.20;77.35;101518.72;5011476;28;20474;-63
2022/04/02 01:43:33;;;;;;;4.00;1.85;;;;;;;1.19;76.79;101519.59;5011755;28;20046;-63
2022/04/02 01:46:03;;;;;;;7.60;2.65;;;;;;;1.20;77.30;101526.50;5011301;28;20128;-63
2022/04/02 01:48:32;;;;;;;4.53;1.83;;;;;;;1.20;76.97;101526.50;5010356;28;20042;-63
2022/04/02 01:51:01;;;;;;;4.72;1.90;;;;;;;1.20;77.42;101529.09;5009842;28;20479;-62
2022/04/02 01:53:29;;;;;;;4.60;1.88;;;;;;;1.27;77.37;101525.50;5011424;28;20057;-62
2022/04/02 01:55:58;;;;;;;4.88;1.98;;;;;;;1.26;76.64;101536.75;5011323;28;20056;-57
2022/04/02 01:58:28;;;;;;;6.60;1.90;;;;;;;1.28;75.92;101532.41;5011292;28;20054;-58
2022/04/02 02:00:56;;;;;;;7.75;2.60;;;;;;;1.25;75.86;101532.44;5011143;28;20058;-57
2022/04/02 02:03:25;;;;;;;5.30;2.20;;;;;;;1.14;76.20;101537.78;5010448;28;20046;-57
2022/04/02 02:05:54;;;;;;;4.50;1.77;;;;;;;1.13;76.38;101533.50;5008662;28;20057;-62
2022/04/02 02:08:23;;;;;;;4.78;1.80;;;;;;;1.18;75.84;101534.25;5011337;28;20070;-57
2022/04/02 02:10:51;;;;;;;5.43;1.90;;;;;;;1.15;75.56;101536.91;5011237;28;20064;-57
2022/04/02 02:13:19;;;;;;;5.93;2.00;;;;;;;1.20;76.52;101538.56;5011366;28;20045;-58
2022/04/02 02:15:49;;;;;;;3.88;1.63;;;;;;;1.11;76.04;101537.84;5011002;28;20041;-62
2022/04/02 02:18:17;;;;;;;5.25;1.70;;;;;;;1.08;75.18;101537.88;5010554;28;20108;-57
2022/04/02 02:20:45;;;;;;;5.05;1.95;;;;;;;1.11;75.37;101540.44;5008922;28;20064;-62
2022/04/02 02:23:14;;;;;;;5.68;1.90;;;;;;;1.10;75.56;101530.09;5010293;28;20120;-62
2022/04/02 02:25:42;;;;;;;4.68;1.58;;;;;;;1.11;75.63;101540.44;5010678;28;20042;-62
2022/04/02 02:28:10;;;;;;;4.55;1.80;;;;;;;1.07;75.48;101543.09;5008891;28;20079;-58
2022/04/02 02:30:39;;;;;;;3.88;1.75;;;;;;;1.03;75.26;101541.44;5010257;28;20089;-57
2022/04/02 02:35:54;;;;;;;4.93;1.65;;;;;;;1.09;75.04;101559.47;5008941;28;20104;-58
2022/04/02 02:38:22;;;;;;;5.32;2.00;;;;;;;1.09;75.10;101554.28;5010901;28;20517;-57
2022/04/02 02:40:51;;;;;;;6.47;1.83;;;;;;;1.03;73.99;101552.63;5010799;28;20042;-57
2022/04/02 02:43:20;;;;;;;2.67;1.42;;;;;;;1.05;74.01;101550.03;5010061;28;20053;-58
2022/04/02 02:45:50;;;;;;;5.13;1.98;;;;;;;1.03;74.40;101544.88;5009963;28;20071;-62
2022/04/02 02:48:19;;;;;;;6.15;2.00;;;;;;;1.04;74.75;101551.75;5009669;28;20058;-62
2022/04/02 02:50:48;;;;;;;4.65;1.75;;;;;;;1.06;75.15;101550.00;5009275;28;20060;-62
2022/04/02 02:53:16;;;;;;;4.80;1.80;;;;;;;1.08;74.00;101545.66;5010271;28;20042;-62
2022/04/02 02:55:45;;;;;;;5.25;1.80;;;;;;;1.08;74.29;101552.56;5010703;28;20517;-62
2022/04/02 02:58:14;;;;;;;4.38;1.77;;;;;;;1.00;75.57;101550.94;5009911;28;20108;-62
2022/04/02 03:00:42;;;;;;;7.63;1.83;;;;;;;0.99;75.61;101545.78;5010349;28;20504;-62
2022/04/02 03:03:10;;;;;;;4.88;2.00;;;;;;;1.06;74.96;101555.19;5009313;28;20042;-62
2022/04/02 03:05:41;;;;;;;5.35;1.83;;;;;;;1.06;74.86;101550.00;5009212;28;20058;-62
2022/04/02 03:08:09;;;;;;;3.47;1.70;;;;;;;1.03;74.86;101554.38;5010225;28;20401;-62
2022/04/02 03:10:37;;;;;;;8.50;2.00;;;;;;;0.94;74.30;101547.56;5009980;28;20104;-57
2022/04/02 03:13:06;;;;;;;4.47;1.58;;;;;;;0.93;75.47;101553.66;5009932;28;20104;-62
2022/04/02 03:15:35;;;;;;;5.32;1.80;;;;;;;1.02;74.88;101553.50;5010108;28;20046;-62
2022/04/02 03:18:05;;;;;;;5.75;1.63;;;;;;;0.98;74.66;101554.44;5009089;28;20442;-62
2022/04/02 03:20:34;;;;;;;4.63;1.83;;;;;;;0.92;75.27;101559.72;5008181;28;20116;-62
2022/04/02 03:23:04;;;;;;;5.18;1.92;;;;;;;0.95;75.19;101562.25;5009910;28;20042;-57
2022/04/02 03:25:33;;;;;;;5.03;1.73;;;;;;;0.97;75.15;101560.50;5008618;28;20493;-58
2022/04/02 03:28:01;;;;;;;5.20;1.85;;;;;;;0.93;75.90;101562.28;5009512;28;20056;-58
2022/04/02 03:30:30;;;;;;;6.82;1.50;;;;;;;1.04;75.45;101569.91;5009489;28;20049;-58
2022/04/02 03:32:58;;;;;;;5.43;2.05;;;;;;;0.95;76.03;101572.59;5009145;28;20386;-62
2022/04/02 03:35:26;;;;;;;4.95;2.10;;;;;;;0.98;76.14;101567.38;5008362;28;20050;-62
2022/04/02 03:37:55;;;;;;;6.00;1.98;;;;;;;1.04;76.34;101566.44;5009794;28;20421;-63
2022/04/02 03:40:26;;;;;;;3.78;1.60;;;;;;;1.02;76.11;101569.06;5009731;28;20049;-62
2022/04/02 03:42:55;;;;;;;3.70;1.60;;;;;;;1.02;76.65;101571.63;5009206;28;20054;-63
2022/04/02 03:45:23;;;;;;;6.43;1.98;;;;;;;1.08;77.36;101568.97;5009225;28;20046;-62
2022/04/02 03:47:51;;;;;;;3.72;1.60;;;;;;;1.05;76.52;101568.16;5008055;28;20125;-63
2022/04/02 03:50:20;;;;;;;7.60;1.88;;;;;;;0.99;77.24;101580.31;5008102;28;20061;-63
2022/04/02 03:52:48;;;;;;;5.38;1.90;;;;;;;0.94;77.98;101576.06;5009251;28;20052;-58
2022/04/02 03:55:16;;;;;;;5.00;2.00;;;;;;;0.87;78.20;101580.47;5009630;28;20401;-58
2022/04/02 03:57:47;;;;;;;5.28;2.30;;;;;;;0.86;77.72;101570.13;5008955;28;20075;-59
2022/04/02 04:00:17;;;;;;;4.88;1.92;;;;;;;0.85;77.52;101571.88;5008319;28;20104;-58
2022/04/02 04:02:45;;;;;;;4.78;1.70;;;;;;;0.87;77.80;101572.69;5006800;28;20050;-63
2022/04/02 04:05:13;;;;;;;5.63;2.00;;;;;;;0.83;77.47;101576.22;5007079;28;20060;-58
2022/04/02 04:07:41;;;;;;;5.15;1.88;;;;;;;0.88;77.76;101581.34;5009802;28;20054;-58
2022/04/02 04:10:09;;;;;;;5.65;2.08;;;;;;;0.89;77.80;101586.50;5009324;28;20603;-58
2022/04/02 04:12:42;;;;;;;7.03;1.98;;;;;;;0.97;77.70;101583.81;5007842;28;20054;-58
2022/04/02 04:15:11;;;;;;;6.45;2.25;;;;;;;0.89;77.33;101583.06;5008909;28;20046;-59
2022/04/02 04:17:41;;;;;;;5.38;2.03;;;;;;;0.89;77.42;101588.25;5008656;28;20064;-58
2022/04/02 04:20:11;;;;;;;5.57;1.90;;;;;;;0.82;78.04;101597.81;5006770;28;20064;-58
2022/04/02 04:22:39;;;;;;;4.47;1.70;;;;;;;0.85;77.93;101592.59;5008518;28;20054;-58
2022/04/02 04:25:09;;;;;;;4.25;1.80;;;;;;;0.79;78.54;101590.06;5009224;28;20096;-62
2022/04/02 04:27:38;;;;;;;4.40;1.95;;;;;;;0.80;78.05;101595.22;5008928;28;20141;-61
2022/04/02 04:30:08;;;;;;;5.68;1.77;;;;;;;0.79;78.15;101596.13;5008664;28;20058;-57
2022/04/02 04:32:37;;;;;;;5.35;2.22;;;;;;;0.76;78.24;101593.56;5008689;28;20065;-57
2022/04/02 04:35:06;;;;;;;4.80;1.75;;;;;;;0.82;78.28;101601.25;5007620;28;20041;-57
2022/04/02 04:37:35;;;;;;;5.15;1.95;;;;;;;0.82;78.00;101600.41;5009038;28;20041;-57
2022/04/02 04:40:04;;;;;;;4.32;1.67;;;;;;;0.82;77.99;101598.66;5009015;28;20041;-57
2022/04/02 04:42:33;;;;;;;5.78;2.13;;;;;;;0.78;78.20;101604.78;5008403;28;20389;-57
2022/04/02 04:45:01;;;;;;;4.03;2.00;;;;;;;0.76;78.59;101609.09;5008336;28;20042;-57
2022/04/02 04:47:30;;;;;;;4.38;1.92;;;;;;;0.73;78.67;101603.97;5008200;28;20046;-57
2022/04/02 04:49:59;;;;;;;5.53;2.28;;;;;;;0.69;79.00;101611.78;5005998;28;20768;-57
2022/04/02 04:52:27;;;;;;;5.65;2.10;;;;;;;0.71;79.10;101613.50;5008788;28;20046;-58
2022/04/02 04:54:55;;;;;;;4.35;1.85;;;;;;;0.75;78.67;101616.88;5008861;28;20542;-62
2022/04/02 04:57:23;;;;;;;5.13;2.05;;;;;;;0.75;78.54;101620.34;5008392;28;20054;-62
2022/04/02 04:59:51;;;;;;;4.72;1.80;;;;;;;0.73;79.17;101627.25;5011339;28;20050;-63
2022/04/02 05:02:22;;;;;;;5.13;2.00;;;;;;;0.72;79.47;101633.31;5011959;28;20060;-58
2022/04/02 05:04:51;;;;;;;5.80;2.13;;;;;;;0.79;79.42;101634.97;5011295;28;20100;-63
2022/04/02 05:07:20;;;;;;;4.90;1.85;;;;;;;0.73;79.64;101629.84;5012768;28;20058;-62
2022/04/02 05:09:49;;;;;;;4.70;2.10;;;;;;;0.80;79.56;101635.81;5012623;28;20808;-57
2022/04/02 05:12:17;;;;;;;3.80;1.90;;;;;;;0.78;80.84;101640.19;5012068;28;20054;-58
2022/04/02 05:14:45;;;;;;;4.00;1.70;;;;;;;0.79;80.60;101636.69;5012633;28;20050;-63
2022/04/02 05:17:16;;;;;;;5.10;2.00;;;;;;;0.80;79.87;101651.34;5011766;28;20080;-63
2022/04/02 05:19:45;;;;;;;4.35;2.08;;;;;;;0.84;80.58;101645.28;5010981;28;20066;-62
2022/04/02 05:22:13;;;;;;;4.85;2.08;;;;;;;0.80;80.41;101651.34;5012392;28;20547;-58
2022/04/02 05:24:42;;;;;;;3.75;1.95;;;;;;;0.90;80.65;101654.69;5011016;28;20046;-58
2022/04/02 05:27:11;;;;;;;4.05;1.88;;;;;;;0.81;80.24;101656.50;5011793;28;20054;-63
2022/04/02 05:29:39;;;;;;;4.25;1.77;;;;;;;0.75;80.81;101661.78;5012188;28;20145;-62
2022/04/02 05:32:08;;;;;;;5.05;2.10;;;;;;;0.78;80.96;101660.91;5011990;28;20050;-57
2022/04/02 05:34:36;;;;;;;6.68;2.25;;;;;;;0.75;80.99;101664.38;5010759;28;20033;-58
2022/04/02 05:37:06;;;;;;;7.07;2.20;;;;;;;0.82;81.75;101671.19;5011342;28;20161;-58
2022/04/02 05:39:34;;;;;;;5.75;2.22;;;;;;;0.76;82.23;101671.25;5012256;28;20386;-58
2022/04/02 05:42:05;;;;;;;6.25;2.38;;;;;;;0.80;82.00;101679.84;5011634;28;20053;-62
2022/04/02 05:44:33;;;;;;;5.57;2.17;;;;;;;0.76;81.94;101683.34;5011619;28;20850;-63
2022/04/02 05:47:01;;;;;;;5.68;2.35;;;;;;;0.78;82.23;101686.78;5011466;28;20053;-63
2022/04/02 05:49:45;;;;;;;5.82;2.28;;;;;;;0.78;82.41;101682.47;5010430;28;20057;-63
2022/04/02 05:52:14;;;;;;;4.57;2.08;;;;;;;0.80;83.02;101688.47;5011337;28;20497;-58
2022/04/02 05:54:42;;;;;;;5.88;2.22;;;;;;;0.86;83.20;101684.09;5011696;28;20115;-62
2022/04/02 05:57:13;;;;;;;5.28;2.38;;;;;;;0.81;83.73;101689.34;5011315;28;20153;-58
2022/04/02 05:59:41;;;;;;;6.43;2.30;;;;;;;0.81;82.90;101695.38;5011738;28;20057;-62
2022/04/02 06:02:12;;;;;;;4.95;2.10;;;;;;;0.78;83.66;101695.41;5011449;28;20057;-57
2022/04/02 06:04:40;;;;;;;5.47;2.40;;;;;;;0.71;84.34;101700.66;5010434;28;20045;-58
2022/04/02 06:07:08;;;;;;;4.75;2.05;;;;;;;0.78;84.38;101705.75;5010717;28;20046;-62
2022/04/02 06:09:36;;;;;;;5.95;2.40;;;;;;;0.67;84.12;101708.47;5011619;28;20060;-63
2022/04/02 06:12:05;;;;;;;5.70;2.35;;;;;;;0.69;84.34;101708.44;5009931;28;20057;-58
2022/04/02 06:14:34;;;;;;;5.68;2.53;;;;;;;0.73;84.55;101711.88;5010382;28;20162;-58
2022/04/02 06:17:03;;;;;;;6.88;2.50;;;;;;;0.74;84.61;101709.25;5010542;28;20478;-58
2022/04/02 06:19:31;;;;;;;6.80;2.38;;;;;;;0.64;84.72;101713.69;5009329;28;20066;-58
2022/04/02 06:22:00;;;;;;;6.45;2.38;;;;;;;0.72;84.98;101720.50;5010317;28;20081;-62
2022/04/02 06:24:28;;;;;;;7.38;2.33;;;;;;;0.78;85.01;101725.63;5010917;28;20069;-58
2022/04/02 06:26:56;;;;;;;7.57;2.70;;;;;;;0.67;85.83;101717.97;5010524;28;20064;-62
2022/04/02 06:29:24;;;;;;;4.72;2.00;;;;;;;0.81;85.70;101726.44;5010587;28;20080;-58
2022/04/02 06:31:54;;;;;;;5.25;2.28;;;;;;;0.74;85.96;101718.78;5010557;28;20054;-58
2022/04/02 06:34:23;;;;;;;6.95;2.65;;;;;;;0.71;86.08;101731.72;5009271;28;20065;-62
2022/04/02 06:36:51;;;;;;;6.72;2.20;;;;;;;0.80;85.93;101732.50;5008872;28;20521;-58
2022/04/02 06:39:19;;;;;;;6.18;2.45;;;;;;;0.84;85.18;101733.31;5010971;28;20104;-58
2022/04/02 06:41:48;;;;;;;7.32;2.50;;;;;;;0.87;85.85;101742.81;5010797;28;20082;-58
2022/04/02 06:44:16;;;;;;;6.72;2.30;;;;;;;0.91;85.66;101744.50;5010413;28;20532;-58
2022/04/02 06:46:44;;;;;;;6.63;2.60;;;;;;;0.91;85.80;101742.75;5010421;28;20037;-58
2022/04/02 06:49:13;;;;;;;9.68;3.05;;;;;;;0.96;85.72;101748.75;5009487;28;20069;-58
2022/04/02 06:51:42;;;;;;;5.70;2.30;;;;;;;0.99;85.35;101753.88;5009779;28;20062;-58
2022/04/02 06:54:10;;;;;;;6.53;2.20;;;;;;;1.07;86.23;101753.81;5010391;28;20060;-58
2022/04/02 06:56:38;;;;;;;6.07;3.00;;;;;;;1.06;85.51;101753.81;5010619;28;20073;-58
2022/04/02 06:59:06;;;;;;;4.85;2.10;;;;;;;1.13;85.48;101763.25;5010312;28;20058;-57
2022/04/02 07:01:34;;;;;;;6.10;2.72;;;;;;;1.15;85.08;101764.94;5009330;28;20108;-58
2022/04/02 07:04:03;;;;;;;8.65;2.90;;;;;;;1.20;84.87;101766.63;5008648;28;20832;-58
2022/04/02 07:06:34;;;;;;;6.93;2.70;;;;;;;1.22;84.72;101772.66;5008690;28;20092;-57
2022/04/02 07:09:02;;;;;;;4.82;2.30;;;;;;;1.24;85.60;101770.91;5009916;28;20612;-57
2022/04/02 07:11:30;;;;;;;7.13;2.67;;;;;;;1.29;84.63;101769.97;5009801;28;20132;-57
2022/04/02 07:13:59;;;;;;;6.00;2.85;;;;;;;1.40;85.77;101769.84;5010240;28;20053;-57
2022/04/02 07:16:28;;;;;;;8.63;2.70;;;;;;;1.46;85.45;101777.56;5009437;28;20042;-57
2022/04/02 07:18:58;;;;;;;6.65;2.65;;;;;;;1.51;85.17;101770.59;5008204;28;20136;-57
2022/04/02 07:21:28;;;;;;;6.53;2.35;;;;;;;1.58;84.83;101768.78;5008742;28;20046;-57
2022/04/02 07:23:57;;;;;;;9.27;2.60;;;;;;;1.72;84.98;101773.78;5009920;28;20042;-57
2022/04/02 07:26:27;;;;;;;5.95;2.60;;;;;;;1.79;84.56;101775.41;5009853;28;20060;-56
2022/04/02 07:28:55;;;;;;;5.68;2.22;;;;;;;1.83;82.99;101777.06;5009540;28;20049;-63
2022/04/02 07:31:23;;;;;;;6.95;2.45;;;;;;;1.92;83.92;101777.81;5005272;28;20523;-63
2022/04/02 07:33:51;;;;;;;5.95;2.45;;;;;;;1.99;82.63;101788.09;5008067;28;20144;-63
2022/04/02 07:36:25;;;;;;;4.35;2.40;;;;;;;1.98;83.15;101785.53;5008688;28;20056;-62
2022/04/02 07:39:04;;;;;;;9.30;2.75;;;;;;;2.09;82.57;101788.81;5009123;28;20397;-62
2022/04/02 07:41:43;;;;;;;7.25;2.83;;;;;;;2.12;82.13;101795.72;5009262;28;20395;-63
2022/04/02 07:44:24;;;;;;;9.07;3.00;;;;;;;2.25;82.23;101801.56;5008987;28;20748;-63
2022/04/02 07:46:53;;;;;;;5.15;2.30;;;;;;;2.37;81.58;101806.56;5008333;28;20567;-62
2022/04/02 07:49:22;;;;;;;7.95;2.60;;;;;;;2.61;80.66;101809.69;5007856;28;20104;-62
2022/04/02 07:51:54;;;;;;;5.72;2.70;;;;;;;2.67;80.05;101806.97;5007818;28;20065;-63
2022/04/02 07:54:26;;;;;;;6.20;3.13;;;;;;;2.75;80.44;101812.03;5009239;28;20052;-63
2022/04/02 07:56:57;;;;;;;7.18;2.70;;;;;;;2.79;79.28;101811.94;5008654;28;20524;-62
2022/04/02 07:59:32;;;;;;;7.00;3.17;;;;;;;2.97;79.39;101821.19;5008590;28;20049;-62
2022/04/02 08:02:01;;;;;;;9.82;2.88;;;;;;;2.95;78.50;101824.69;5008265;28;20688;-62
2022/04/02 08:04:31;;;;;;;5.10;2.70;;;;;;;3.20;78.83;101818.16;5007647;28;20057;-62
2022/04/02 08:06:59;;;;;;;7.90;2.65;;;;;;;3.35;76.69;101824.81;5007383;28;20042;-62
2022/04/02 08:09:29;;;;;;;7.25;2.63;;;;;;;3.48;76.68;101825.41;5008541;28;20681;-62
2022/04/02 08:11:58;;;;;;;5.53;2.50;;;;;;;3.59;76.38;101820.00;5008325;28;20061;-61
2022/04/02 08:14:30;;;;;;;7.78;2.78;;;;;;;3.84;76.79;101822.09;5008126;28;20060;-62
2022/04/02 08:16:59;;;;;;;6.22;2.65;;;;;;;3.98;74.52;101834.81;5008351;28;20044;-63
2022/04/02 08:19:28;;;;;;;5.88;2.80;;;;;;;4.13;74.56;101833.59;5006950;28;20099;-63
2022/04/02 08:21:56;;;;;;;5.53;2.63;;;;;;;4.24;73.04;101823.84;5007587;28;20057;-63
2022/04/02 08:24:24;;;;;;;6.63;2.78;;;;;;;4.18;73.17;101830.00;5008440;28;20053;-63
2022/04/02 08:27:01;;;;;;;5.90;2.60;;;;;;;4.28;73.66;101830.69;5008426;28;20500;-63
2022/04/02 08:29:47;;;;;;;7.03;2.95;;;;;;;4.32;74.02;101824.50;5007962;28;20054;-62
2022/04/02 08:32:26;;;;;;;7.70;3.10;;;;;;;4.42;72.31;101830.34;5007441;28;20045;-63
2022/04/02 08:35:04;;;;;;;5.57;2.70;;;;;;;4.55;72.38;101826.56;5005543;28;20077;-63
2022/04/02 08:37:49;;;;;;;6.38;2.92;;;;;;;4.69;72.86;101834.03;5008025;28;20052;-63
2022/04/02 08:40:37;;;;;;;8.40;2.97;;;;;;;5.00;71.80;101828.03;5008451;28;20389;-63
2022/04/02 08:43:42;;;;;;;7.25;2.80;;;;;;;5.44;71.59;101832.09;5007498;28;20050;-63
2022/04/02 08:46:22;;;;;;;5.68;2.30;;;;;;;5.67;69.26;101829.72;5007619;28;20038;-63
2022/04/02 08:48:58;;;;;;;5.90;2.60;;;;;;;5.86;67.92;101821.31;5007069;28;20053;-63
2022/04/02 08:51:40;;;;;;;6.75;2.90;;;;;;;5.81;68.87;101836.25;5006904;28;20477;-63
2022/04/02 08:54:24;;;;;;;6.22;2.58;;;;;;;6.19;65.20;101832.53;5008374;28;20057;-63
2022/04/02 08:56:58;;;;;;;6.65;2.95;;;;;;;6.18;63.59;101824.75;5007765;28;20050;-62
2022/04/02 08:59:37;;;;;;;5.80;2.58;;;;;;;6.33;64.20;101831.25;5007606;28;20054;-62
2022/04/02 09:02:41;;;;;;;6.15;3.13;;;;;;;6.19;63.47;101835.16;5008382;28;20468;-63
2022/04/02 09:05:22;;;;;;;6.30;2.90;;;;;;;6.14;61.65;101837.06;5006804;28;20084;-63
2022/04/02 09:08:28;;;;;;;9.07;2.95;;;;;;;6.45;61.89;101830.88;5008010;28;20133;-62
2022/04/02 09:11:22;;;;;;;6.05;2.60;;;;;;;6.71;62.40;101837.84;5007533;28;20053;-63
2022/04/02 09:14:27;;;;;;;5.63;2.90;;;;;;;6.96;63.35;101839.66;5006719;28;20054;-63
2022/04/02 09:17:05;;;;;;;7.28;2.60;;;;;;;7.26;59.76;101842.94;5007721;28;20038;-63
2022/04/02 09:19:52;;;;;;;9.35;2.97;;;;;;;7.28;60.53;101845.53;5004320;28;20054;-63
2022/04/02 09:22:34;;;;;;;6.13;2.85;;;;;;;7.39;59.21;101845.13;5007337;28;20042;-63
2022/04/02 09:25:35;;;;;;;5.78;2.97;;;;;;;7.34;60.29;101845.31;5008037;28;20056;-63
2022/04/02 09:28:18;;;;;;;8.30;2.72;;;;;;;7.44;60.44;101854.56;5004196;28;20097;-59
2022/04/02 09:31:12;;;;;;;7.30;3.15;;;;;;;7.01;61.30;101856.03;5007982;28;20053;-63
2022/04/02 09:34:16;;;;;;;6.18;2.63;;;;;;;7.08;60.57;101857.53;5005783;28;20057;-58
2022/04/02 09:36:59;;;;;;;4.82;2.83;;;;;;;7.07;60.57;101854.97;4989582;28;20075;-59
2022/04/02 09:39:37;;;;;;;;;;;;;;;7.17;61.49;101855.50;5008582;28;20111;-64
2022/04/02 09:42:21;;;;;;;7.40;2.80;;;;;;;7.28;59.87;101850.78;5007646;28;19925;-63
2022/04/02 09:45:00;;;;;;;8.18;2.88;;;;;;;7.59;60.31;101847.91;5006462;28;20503;-58
2022/04/02 09:47:46;;;;;;;5.65;2.75;;;;;;;8.08;58.41;101853.03;5010056;28;20433;-64
2022/04/02 09:50:17;;;;;;;6.22;2.80;;;;;;;8.05;55.46;101854.94;5009123;28;20042;-63
2022/04/02 09:52:47;;;;;;;6.38;2.63;;;;;;;7.77;57.27;101855.97;5011138;28;20413;-64
2022/04/02 09:55:21;;;;;;;7.10;2.92;;;;;;;7.91;55.68;101858.94;5009081;28;20054;-64
2022/04/02 09:58:25;;;;;;;5.85;2.80;;;;;;;8.08;55.93;101860.91;5010453;28;20703;-64
2022/04/02 10:01:06;;;;;;;5.57;2.60;;;;;;;8.09;54.62;101852.13;5010870;28;20416;-58
2022/04/02 10:03:41;;;;;;;5.55;2.65;;;;;;;8.33;55.00;101861.72;5010271;28;20054;-64
2022/04/02 10:06:23;;;;;;;10.20;2.78;;;;;;;8.29;55.56;101859.22;5008219;28;20527;-59
2022/04/02 10:09:07;;;;;;;6.63;2.58;;;;;;;7.91;54.29;101866.78;5010895;28;20103;-63
2022/04/02 10:11:39;;;;;;;6.65;2.60;;;;;;;7.49;54.88;101856.16;5010952;28;20061;-58
2022/04/02 10:14:08;;;;;;;7.20;2.50;;;;;;;7.21;52.64;101857.09;5010459;28;20512;-58
2022/04/02 10:16:37;;;;;;;6.13;2.78;;;;;;;7.27;53.78;101857.75;5009600;28;20099;-58
2022/04/02 10:19:09;;;;;;;6.57;2.67;;;;;;;7.17;53.81;101856.38;5007917;28;20779;-64
2022/04/02 10:21:40;;;;;;;4.50;2.40;;;;;;;7.13;51.98;101844.31;5008950;28;20056;-58
2022/04/02 10:24:20;;;;;;;6.88;2.47;;;;;;;7.05;52.66;101851.56;5010021;28;20052;-58
2022/04/02 10:26:53;;;;;;;5.78;2.10;;;;;;;6.68;53.23;101855.38;5008452;28;20108;-58
2022/04/02 10:29:32;;;;;;;5.55;2.35;;;;;;;6.73;53.81;101856.09;5009616;28;20053;-65
2022/04/02 10:32:05;;;;;;;6.03;1.92;;;;;;;6.51;52.93;101851.56;5004378;28;20065;-58
2022/04/02 10:34:43;;;;;;;4.72;2.15;;;;;;;6.63;53.54;101857.31;5007622;28;20042;-65
2022/04/02 10:37:15;;;;;;;3.70;1.88;;;;;;;6.74;52.65;101852.59;5009467;28;20438;-64
2022/04/02 10:39:52;;;;;;;4.80;1.88;;;;;;;6.89;51.35;101856.47;5009114;28;20056;-58
2022/04/02 10:42:26;;;;;;;5.47;1.90;;;;;;;7.01;51.30;101852.56;5009983;28;20057;-58
2022/04/02 10:44:59;;;;;;;4.95;1.67;;;;;;;7.00;49.43;101854.31;5010017;28;20049;-58
2022/04/02 10:47:29;;;;;;;;;;;;;;;7.05;47.05;101847.19;5007663;28;20053;-58
2022/04/02 10:50:02;;;;;;;3.75;1.52;;;;;;;7.21;46.80;101855.38;5007815;28;20669;-57
2022/04/02 10:52:32;;;;;;;4.18;1.35;;;;;;;7.48;46.41;101839.56;5010179;28;20045;-57
2022/04/02 10:55:01;;;;;;;3.97;1.65;;;;;;;7.43;46.73;101836.25;5009924;28;20049;-58
2022/04/02 10:57:29;;;;;;;3.83;2.00;;;;;;;7.32;44.70;101839.28;5008195;28;20104;-58
2022/04/02 11:00:01;;;;;;;3.40;1.52;;;;;;;7.53;42.65;101847.28;4990188;28;20054;-65
2022/04/02 11:02:41;;;;;;;3.35;1.58;;;;;;;7.55;43.11;101835.84;4990013;28;20054;-64
2022/04/02 11:05:11;;;;;;;4.68;1.40;;;;;;;7.55;43.30;101835.84;4988444;28;20050;-64
2022/04/02 11:07:43;;;;;;;2.90;1.48;;;;;;;7.33;41.28;101837.50;4990644;28;20045;-63
2022/04/02 11:10:14;;;;;;;4.25;1.60;;;;;;;7.61;43.62;101840.00;5008393;28;20054;-65
2022/04/02 11:12:44;;;;;;;5.60;1.90;;;;;;;8.11;42.40;101845.09;5009561;28;20053;-57
2022/04/02 11:15:14;;;;;;;3.85;1.63;;;;;;;7.98;41.09;101843.84;5009411;28;20086;-58
2022/04/02 11:17:44;;;;;;;2.58;1.38;;;;;;;8.46;40.85;101842.00;5008423;28;20501;-58
2022/04/02 11:20:15;;;;;;;3.05;1.23;;;;;;;8.69;41.34;101841.06;5005945;28;20444;-59
2022/04/02 11:23:12;;;;;;;4.88;1.73;;;;;;;8.37;41.08;101845.81;5009488;28;20068;-58
2022/04/02 11:25:46;;;;;;;3.80;1.90;;;;;;;8.26;39.53;101838.38;5009709;28;20108;-57
2022/04/02 11:28:16;;;;;;;2.67;1.25;;;;;;;7.89;41.14;101841.56;5008427;28;20057;-59
2022/04/02 11:30:47;;;;;;;5.43;1.67;;;;;;;7.70;40.81;101844.91;5008630;28;20054;-58
2022/04/02 11:33:17;;;;;;;5.05;1.55;;;;;;;7.42;41.75;101839.81;5008134;28;20149;-59
2022/04/02 11:35:48;;;;;;;5.13;1.45;;;;;;;7.60;41.05;101839.13;5007426;28;20065;-58
2022/04/02 11:38:34;;;;;;;3.72;1.40;;;;;;;7.41;42.00;101843.31;5009244;28;20064;-58
2022/04/02 11:41:20;;;;;;;2.97;1.48;;;;;;;7.57;41.02;101841.00;5008408;28;20063;-59
2022/04/02 11:43:51;;;;;;;3.33;1.33;;;;;;;8.10;39.72;101835.50;5007879;28;20065;-58
2022/04/02 11:46:21;;;;;;;3.17;1.27;;;;;;;8.61;39.80;101835.28;5005502;28;20405;-58
2022/04/02 11:48:55;;;;;;;2.47;1.33;;;;;;;8.70;40.67;101840.16;5007320;28;20096;-59
2022/04/02 11:51:25;;;;;;;2.95;1.30;;;;;;;8.36;38.43;101859.00;5008027;28;20062;-58
2022/04/02 11:54:03;;;;;;;2.25;1.13;;;;;;;7.71;38.40;101845.75;5009261;28;20057;-58
2022/04/02 11:56:33;;;;;;;3.15;1.42;;;;;;;7.49;39.88;101859.59;5008354;28;20057;-59
2022/04/02 11:59:05;;;;;;;3.15;1.42;;;;;;;7.45;39.76;101855.41;5008939;28;20052;-59